Time;durP1;ratioP1;P1;durP2;ratioP2;P2;SDS_P1;SDS_P2;PMS_P1;PMS_P2;Temp;Humidity;BMP_temperature;BMP_pressure;BME280_temperature;BME280_humidity;BME280_pressure;Samples;Min_cycle;Max_cycle;Signal;HPM_P1;HPM_P2
2024/02/03 00:00:35;;;;;;;10.57;7.07;;;7.60;99.90;;;;;;5044337;28;20041;-47
2024/02/03 00:03:02;;;;;;;12.18;6.88;;;7.50;99.90;;;;;;5045059;28;20041;-49
2024/02/03 00:05:29;;;;;;;10.57;7.38;;;7.60;99.90;;;;;;5045622;28;22729;-45
2024/02/03 00:07:56;;;;;;;11.20;7.13;;;7.50;99.90;;;;;;5043196;28;20119;-46
2024/02/03 00:10:23;;;;;;;10.13;6.85;;;7.60;99.90;;;;;;5044209;28;20040;-47
2024/02/03 00:12:50;;;;;;;11.55;6.90;;;7.50;99.90;;;;;;5047635;28;20482;-48
2024/02/03 00:15:18;;;;;;;10.80;7.43;;;7.50;99.90;;;;;;5046057;28;20049;-47
2024/02/03 00:17:45;;;;;;;10.95;7.35;;;7.50;99.90;;;;;;5044777;28;20041;-45
2024/02/03 00:20:13;;;;;;;12.02;7.38;;;7.50;99.90;;;;;;5046126;28;20413;-47
2024/02/03 00:22:45;;;;;;;10.45;6.75;;;7.50;99.90;;;;;;5045759;28;20045;-51
2024/02/03 00:25:12;;;;;;;11.48;7.22;;;7.50;99.90;;;;;;5047493;28;20045;-46
2024/02/03 00:27:39;;;;;;;11.80;7.30;;;7.40;99.90;;;;;;5039337;28;20055;-47
2024/02/03 00:30:07;;;;;;;10.43;7.43;;;7.40;99.90;;;;;;5040247;28;20498;-46
2024/02/03 00:32:34;;;;;;;10.90;7.13;;;7.40;99.90;;;;;;5043403;28;20104;-47
2024/02/03 00:35:01;;;;;;;8.88;6.30;;;7.40;99.90;;;;;;5045320;28;20056;-46
2024/02/03 00:37:28;;;;;;;13.40;7.72;;;7.40;99.90;;;;;;5043450;28;20067;-47
2024/02/03 00:39:57;;;;;;;12.90;8.05;;;7.40;99.90;;;;;;5041022;28;20098;-49
2024/02/03 00:42:24;;;;;;;11.25;7.60;;;7.40;99.90;;;;;;5042142;28;20084;-45
2024/02/03 00:44:51;;;;;;;10.25;6.43;;;7.40;99.90;;;;;;5046997;28;20033;-49
2024/02/03 00:47:18;;;;;;;11.35;8.32;;;7.50;99.90;;;;;;5039818;28;20038;-50
2024/02/03 00:49:44;;;;;;;12.10;7.93;;;7.50;99.90;;;;;;5046430;28;20044;-46
2024/02/03 00:52:12;;;;;;;12.05;7.97;;;7.40;99.90;;;;;;5048527;28;20139;-48
2024/02/03 00:54:38;;;;;;;13.93;9.07;;;7.40;99.90;;;;;;5041927;28;20044;-46
2024/02/03 00:57:07;;;;;;;11.57;7.53;;;7.40;99.90;;;;;;5042646;28;20044;-52
2024/02/03 00:59:34;;;;;;;11.50;7.30;;;7.50;99.90;;;;;;5044011;28;20068;-51
2024/02/03 01:02:01;;;;;;;11.73;6.90;;;7.50;99.90;;;;;;5047441;28;20198;-47
2024/02/03 01:04:28;;;;;;;11.70;7.65;;;7.40;99.90;;;;;;5045903;28;20128;-48
2024/02/03 01:06:57;;;;;;;11.82;7.35;;;7.40;99.90;;;;;;5048143;28;20064;-46
2024/02/03 01:09:24;;;;;;;10.88;7.88;;;7.50;99.90;;;;;;5049949;28;20045;-53
2024/02/03 01:11:51;;;;;;;11.90;7.72;;;7.40;99.90;;;;;;5047685;28;20513;-49
2024/02/03 01:14:18;;;;;;;12.02;7.40;;;7.40;99.90;;;;;;5048907;28;20053;-50
2024/02/03 01:16:45;;;;;;;11.15;7.20;;;7.40;99.90;;;;;;5029344;28;20059;-50
2024/02/03 01:19:12;;;;;;;10.98;6.90;;;7.40;99.90;;;;;;5048656;28;20123;-48
2024/02/03 01:21:39;;;;;;;11.07;7.38;;;7.40;99.90;;;;;;5048021;28;20041;-45
2024/02/03 01:24:06;;;;;;;11.55;7.38;;;7.40;99.90;;;;;;5047598;28;20037;-45
2024/02/03 01:26:33;;;;;;;12.80;7.57;;;7.40;99.90;;;;;;5043999;28;20036;-47
2024/02/03 01:29:00;;;;;;;11.38;7.40;;;7.40;99.90;;;;;;5048036;28;20049;-50
2024/02/03 01:31:28;;;;;;;13.32;8.45;;;7.50;99.90;;;;;;5047997;28;20059;-48
2024/02/03 01:33:56;;;;;;;13.55;7.57;;;7.40;99.90;;;;;;5047391;28;20479;-54
2024/02/03 01:36:22;;;;;;;10.85;7.43;;;7.50;99.90;;;;;;5048669;28;20045;-53
2024/02/03 01:38:52;;;;;;;11.05;7.63;;;7.50;99.90;;;;;;5047896;28;20057;-51
2024/02/03 01:41:19;;;;;;;12.15;7.40;;;7.50;99.90;;;;;;5051764;28;20125;-48
2024/02/03 01:43:46;;;;;;;13.05;8.15;;;7.40;99.90;;;;;;5050812;28;20045;-52
2024/02/03 01:46:14;;;;;;;11.00;7.45;;;7.50;99.90;;;;;;5051832;28;20049;-42
2024/02/03 01:48:41;;;;;;;12.50;8.05;;;7.50;99.90;;;;;;5050053;28;20103;-50
2024/02/03 01:51:10;;;;;;;11.32;7.50;;;7.50;99.90;;;;;;5051395;28;20189;-48
2024/02/03 01:53:38;;;;;;;11.75;7.95;;;7.50;99.90;;;;;;5046928;28;20060;-51
2024/02/03 01:56:05;;;;;;;11.57;7.80;;;7.40;99.90;;;;;;5050729;28;20128;-49
2024/02/03 01:58:32;;;;;;;12.52;7.88;;;7.50;99.90;;;;;;5048620;28;20447;-51
2024/02/03 02:00:59;;;;;;;13.45;8.57;;;7.50;99.90;;;;;;5050631;28;20049;-51
2024/02/03 02:03:27;;;;;;;12.05;8.75;;;7.50;99.90;;;;;;5049974;28;20045;-46
2024/02/03 02:05:54;;;;;;;14.45;8.45;;;7.50;99.90;;;;;;5050517;28;20414;-51
2024/02/03 02:08:32;;;;;;;11.82;7.68;;;7.50;99.90;;;;;;5047546;28;20065;-45
2024/02/03 02:10:59;;;;;;;12.35;8.00;;;7.50;99.90;;;;;;5049686;28;20132;-49
2024/02/03 02:13:26;;;;;;;11.98;7.93;;;7.50;99.90;;;;;;5048381;28;20369;-52
2024/02/03 02:15:53;;;;;;;12.02;8.27;;;7.50;99.90;;;;;;5048876;28;20068;-45
2024/02/03 02:18:20;;;;;;;13.98;8.88;;;7.50;99.90;;;;;;5048371;28;20080;-49
2024/02/03 02:20:47;;;;;;;12.65;8.32;;;7.50;99.90;;;;;;5049373;28;20039;-45
2024/02/03 02:23:14;;;;;;;11.80;8.38;;;7.50;99.90;;;;;;5044926;28;20044;-49
2024/02/03 02:25:42;;;;;;;11.65;8.15;;;7.50;99.90;;;;;;5030684;28;20116;-46
2024/02/03 02:28:09;;;;;;;11.77;8.27;;;7.50;99.90;;;;;;5047614;28;20049;-50
2024/02/03 02:30:35;;;;;;;14.80;8.95;;;7.50;99.90;;;;;;5048553;28;20096;-44
2024/02/03 02:33:03;;;;;;;12.88;7.88;;;7.50;99.90;;;;;;5049087;28;20301;-50
2024/02/03 02:35:30;;;;;;;12.60;8.52;;;7.50;99.90;;;;;;5048955;28;20044;-46
2024/02/03 02:37:56;;;;;;;11.60;7.97;;;7.50;99.90;;;;;;5046894;28;20080;-53
2024/02/03 02:40:23;;;;;;;14.30;8.55;;;7.50;99.90;;;;;;5055330;28;20073;-46
2024/02/03 02:42:50;;;;;;;14.85;8.32;;;7.50;99.90;;;;;;5060006;28;20051;-46
2024/02/03 02:45:17;;;;;;;12.57;8.27;;;7.50;99.90;;;;;;5054314;28;20045;-47
2024/02/03 02:47:44;;;;;;;13.10;8.50;;;7.50;99.90;;;;;;5050998;28;20045;-48
2024/02/03 02:50:11;;;;;;;13.35;9.38;;;7.50;99.90;;;;;;5051955;28;20044;-53
2024/02/03 02:52:38;;;;;;;14.23;8.30;;;7.60;99.90;;;;;;5047525;28;20045;-48
2024/02/03 02:55:05;;;;;;;14.13;8.30;;;7.50;99.90;;;;;;5048383;28;20135;-53
2024/02/03 02:57:32;;;;;;;11.27;8.55;;;7.50;99.90;;;;;;5050882;28;20052;-47
2024/02/03 02:59:59;;;;;;;12.63;8.55;;;7.50;99.90;;;;;;5047222;28;20056;-44
2024/02/03 03:02:26;;;;;;;12.77;8.80;;;7.50;99.90;;;;;;5049257;28;20076;-46
2024/02/03 03:04:53;;;;;;;12.63;8.18;;;7.50;99.90;;;;;;5049786;28;20037;-48
2024/02/03 03:07:23;;;;;;;12.23;8.63;;;7.50;99.90;;;;;;5045905;28;20045;-48
2024/02/03 03:09:51;;;;;;;14.23;9.20;;;7.50;99.90;;;;;;5047202;28;20132;-50
2024/02/03 03:12:17;;;;;;;11.90;8.38;;;7.50;99.90;;;;;;5046687;28;20201;-51
2024/02/03 03:14:44;;;;;;;14.88;9.38;;;7.50;99.90;;;;;;5043300;28;20048;-49
2024/02/03 03:17:11;;;;;;;13.85;8.98;;;7.50;99.90;;;;;;5046817;28;20080;-46
2024/02/03 03:19:38;;;;;;;11.57;8.50;;;7.50;99.90;;;;;;5045329;28;20172;-44
2024/02/03 03:22:05;;;;;;;14.13;9.02;;;7.50;99.90;;;;;;5050270;28;20550;-45
2024/02/03 03:24:33;;;;;;;12.35;8.35;;;7.40;99.90;;;;;;5044712;28;20048;-47
2024/02/03 03:27:00;;;;;;;17.45;9.80;;;7.50;99.90;;;;;;5045811;28;20461;-47
2024/02/03 03:29:27;;;;;;;14.18;9.48;;;7.50;99.90;;;;;;5042434;28;20049;-48
2024/02/03 03:31:54;;;;;;;13.80;8.88;;;7.40;99.90;;;;;;5046486;28;20041;-49
2024/02/03 03:34:21;;;;;;;14.05;8.95;;;7.40;99.90;;;;;;5045525;28;20276;-48
2024/02/03 03:36:48;;;;;;;14.02;8.63;;;7.40;99.90;;;;;;5046892;28;20525;-52
2024/02/03 03:39:15;;;;;;;13.98;8.73;;;7.40;99.90;;;;;;5043828;28;20592;-46
2024/02/03 03:41:42;;;;;;;11.98;8.52;;;7.40;99.90;;;;;;5045448;28;20453;-51
2024/02/03 03:44:09;;;;;;;14.77;9.00;;;7.40;99.90;;;;;;5041552;28;20044;-48
2024/02/03 03:46:36;;;;;;;13.20;8.85;;;7.40;99.90;;;;;;5045046;28;20037;-45
2024/02/03 03:49:03;;;;;;;14.77;9.68;;;7.50;99.90;;;;;;5047143;28;20043;-48
2024/02/03 03:51:31;;;;;;;13.60;9.05;;;7.40;99.90;;;;;;5042198;28;20073;-52
2024/02/03 03:53:59;;;;;;;15.63;8.93;;;7.50;99.90;;;;;;5039859;28;20124;-51
2024/02/03 03:56:26;;;;;;;13.63;8.90;;;7.50;99.90;;;;;;5045231;28;20045;-48
2024/02/03 03:58:53;;;;;;;15.02;9.25;;;7.50;99.90;;;;;;5046896;28;20032;-47
2024/02/03 04:01:20;;;;;;;13.68;8.57;;;7.50;99.90;;;;;;5044154;28;20045;-48
2024/02/03 04:03:47;;;;;;;15.88;9.48;;;7.50;99.90;;;;;;5045109;28;20115;-48
2024/02/03 04:06:15;;;;;;;13.93;9.32;;;7.40;99.90;;;;;;5044254;28;20655;-46
2024/02/03 04:08:42;;;;;;;16.90;10.13;;;7.40;99.90;;;;;;5045282;28;20041;-50
2024/02/03 04:11:08;;;;;;;15.23;9.65;;;7.50;99.90;;;;;;5045292;28;20521;-47
2024/02/03 04:13:35;;;;;;;15.40;9.05;;;7.40;99.90;;;;;;5044187;28;20486;-48
2024/02/03 04:16:04;;;;;;;15.25;10.05;;;7.30;99.90;;;;;;5046565;28;20049;-51
2024/02/03 04:18:30;;;;;;;16.95;9.98;;;7.30;99.90;;;;;;5041122;28;20107;-48
2024/02/03 04:20:57;;;;;;;14.68;9.48;;;7.30;99.90;;;;;;5044993;28;20060;-51
2024/02/03 04:23:24;;;;;;;16.30;9.85;;;7.40;99.90;;;;;;5046902;28;20041;-43
2024/02/03 04:25:51;;;;;;;15.98;10.40;;;7.40;99.90;;;;;;5045200;28;20458;-47
2024/02/03 04:28:18;;;;;;;17.83;10.32;;;7.40;99.90;;;;;;5042855;28;20134;-47
2024/02/03 04:30:45;;;;;;;13.70;9.52;;;7.40;99.90;;;;;;5042365;28;20052;-45
2024/02/03 04:33:12;;;;;;;15.18;9.63;;;7.40;99.90;;;;;;5044978;28;20045;-53
2024/02/03 04:35:39;;;;;;;15.55;9.77;;;7.30;99.90;;;;;;5044112;28;20044;-45
2024/02/03 04:38:06;;;;;;;17.30;10.07;;;7.40;99.90;;;;;;5045517;28;20502;-49
2024/02/03 04:40:33;;;;;;;15.18;9.32;;;7.30;99.90;;;;;;5038911;28;20145;-48
2024/02/03 04:43:01;;;;;;;14.75;9.68;;;7.30;99.90;;;;;;5044302;28;20422;-46
2024/02/03 04:45:28;;;;;;;15.88;9.90;;;7.30;99.90;;;;;;5044323;28;20049;-47
2024/02/03 04:47:55;;;;;;;17.38;10.40;;;7.30;99.90;;;;;;5043083;28;20461;-47
2024/02/03 04:50:22;;;;;;;15.25;10.23;;;7.30;99.90;;;;;;5043597;28;20104;-48
2024/02/03 04:52:49;;;;;;;18.42;11.05;;;7.20;99.90;;;;;;5041797;28;20126;-48
2024/02/03 04:55:18;;;;;;;17.67;11.02;;;7.20;99.90;;;;;;5042281;28;20040;-50
2024/02/03 04:57:45;;;;;;;17.42;11.60;;;7.20;99.90;;;;;;5042512;28;20065;-53
2024/02/03 05:00:13;;;;;;;15.93;10.25;;;7.20;99.90;;;;;;5045600;28;20052;-51
2024/02/03 05:02:41;;;;;;;18.10;10.52;;;7.20;99.90;;;;;;5050969;28;20147;-45
2024/02/03 05:05:08;;;;;;;17.15;10.93;;;7.20;99.90;;;;;;5050729;28;20125;-47
2024/02/03 05:07:35;;;;;;;19.75;11.00;;;7.20;99.90;;;;;;5031756;28;20042;-48
2024/02/03 05:10:04;;;;;;;17.38;10.77;;;7.20;99.90;;;;;;5048913;28;20097;-47
2024/02/03 05:12:32;;;;;;;14.18;10.10;;;7.20;99.90;;;;;;5045153;28;20130;-49
2024/02/03 05:15:00;;;;;;;18.45;11.32;;;7.20;99.90;;;;;;5044457;28;20420;-47
2024/02/03 05:17:31;;;;;;;17.85;11.23;;;7.20;99.90;;;;;;5042192;28;20041;-48
2024/02/03 05:19:58;;;;;;;18.80;11.82;;;7.20;99.90;;;;;;5049350;28;20045;-50
2024/02/03 05:22:25;;;;;;;17.65;11.43;;;7.10;99.90;;;;;;5048923;28;20053;-47
2024/02/03 05:24:52;;;;;;;18.23;11.35;;;7.10;99.90;;;;;;5044154;28;20041;-50
2024/02/03 05:27:19;;;;;;;16.10;10.25;;;7.10;99.90;;;;;;5047658;28;20389;-52
2024/02/03 05:29:46;;;;;;;15.88;11.32;;;7.20;99.90;;;;;;5046973;28;20045;-48
2024/02/03 05:32:13;;;;;;;15.93;10.45;;;7.20;99.90;;;;;;5045545;28;20056;-55
2024/02/03 05:34:40;;;;;;;16.92;10.00;;;7.10;99.90;;;;;;5044418;28;20132;-50
2024/02/03 05:37:07;;;;;;;15.93;9.82;;;7.20;99.90;;;;;;5045461;28;20053;-50
2024/02/03 05:39:34;;;;;;;16.65;9.95;;;7.20;99.90;;;;;;5045237;28;20037;-55
2024/02/03 05:42:01;;;;;;;14.38;9.95;;;7.20;99.90;;;;;;5048439;28;20048;-52
2024/02/03 05:44:28;;;;;;;14.27;9.43;;;7.30;99.90;;;;;;5038961;28;20069;-50
2024/02/03 05:46:55;;;;;;;16.55;9.07;;;7.20;99.90;;;;;;5043484;28;20045;-51
2024/02/03 05:49:22;;;;;;;14.10;9.50;;;7.20;99.90;;;;;;5042427;28;20049;-49
2024/02/03 05:51:50;;;;;;;14.15;9.95;;;7.20;99.90;;;;;;5043997;28;20244;-48
2024/02/03 05:54:17;;;;;;;14.88;10.88;;;7.20;99.90;;;;;;5038919;28;20398;-48
2024/02/03 05:56:44;;;;;;;13.57;8.93;;;7.20;99.90;;;;;;5044473;28;20033;-49
2024/02/03 05:59:11;;;;;;;16.00;9.88;;;7.20;99.90;;;;;;5046310;28;20132;-45
2024/02/03 06:01:57;;;;;;;16.30;9.77;;;7.20;99.90;;;;;;5025959;28;20049;-42
2024/02/03 06:04:27;;;;;;;15.65;10.27;;;7.10;99.90;;;;;;5041920;28;20049;-50
2024/02/03 06:06:54;;;;;;;16.33;10.38;;;7.10;99.90;;;;;;5046420;28;20041;-50
2024/02/03 06:09:23;;;;;;;16.20;10.88;;;7.10;99.90;;;;;;5041235;28;20049;-48
2024/02/03 06:11:50;;;;;;;16.38;10.45;;;7.10;99.90;;;;;;5043138;28;20053;-51
2024/02/03 06:14:17;;;;;;;18.77;10.68;;;7.00;99.90;;;;;;5043304;28;20446;-51
2024/02/03 06:16:44;;;;;;;16.20;10.80;;;7.00;99.90;;;;;;5042926;28;20124;-49
2024/02/03 06:19:11;;;;;;;16.92;11.13;;;7.00;99.90;;;;;;5042281;28;20429;-52
2024/02/03 06:21:38;;;;;;;19.52;11.32;;;7.00;99.90;;;;;;5052608;28;20041;-53
2024/02/03 06:24:05;;;;;;;19.05;11.35;;;6.90;99.90;;;;;;5053899;28;20502;-51
2024/02/03 06:26:32;;;;;;;19.35;11.82;;;7.00;99.90;;;;;;5039915;28;20041;-48
2024/02/03 06:28:59;;;;;;;16.27;11.13;;;7.00;99.90;;;;;;5044245;28;20391;-49
2024/02/03 06:31:26;;;;;;;17.50;11.32;;;6.90;99.90;;;;;;5044021;28;20111;-44
2024/02/03 06:33:53;;;;;;;19.90;11.88;;;6.90;99.90;;;;;;5048371;28;20379;-48
2024/02/03 06:36:20;;;;;;;22.15;11.68;;;6.80;99.90;;;;;;5047360;28;20045;-51
2024/02/03 06:38:47;;;;;;;19.58;12.13;;;6.70;99.90;;;;;;5048368;28;20052;-46
2024/02/03 06:41:18;;;;;;;18.05;11.25;;;6.70;99.90;;;;;;5047585;28;20041;-48
2024/02/03 06:43:45;;;;;;;17.80;11.25;;;6.70;99.90;;;;;;5047460;28;20248;-46
2024/02/03 06:46:12;;;;;;;18.88;11.45;;;6.70;99.90;;;;;;5050436;28;20103;-48
2024/02/03 06:48:39;;;;;;;21.23;12.10;;;6.80;99.90;;;;;;5048505;28;20051;-51
2024/02/03 06:51:06;;;;;;;19.60;10.55;;;6.80;99.90;;;;;;5047795;28;20053;-46
2024/02/03 06:53:33;;;;;;;19.80;12.13;;;6.70;99.90;;;;;;5043490;28;20107;-48
2024/02/03 06:56:00;;;;;;;20.35;11.80;;;6.70;99.90;;;;;;5049480;28;20048;-48
2024/02/03 06:58:26;;;;;;;16.70;11.05;;;6.70;99.90;;;;;;5048922;28;20049;-46
2024/02/03 07:00:53;;;;;;;18.63;10.60;;;6.80;99.90;;;;;;5045395;28;20360;-46
2024/02/03 07:03:20;;;;;;;18.55;11.45;;;6.80;99.90;;;;;;5046924;28;20049;-50
2024/02/03 07:05:47;;;;;;;17.92;11.93;;;6.70;99.90;;;;;;5046001;28;20060;-46
2024/02/03 07:08:14;;;;;;;17.42;10.70;;;6.70;99.90;;;;;;5046617;28;20048;-51
2024/02/03 07:10:41;;;;;;;18.42;10.70;;;6.70;99.90;;;;;;5045683;28;20445;-45
2024/02/03 07:13:08;;;;;;;18.75;10.98;;;6.70;99.90;;;;;;5049078;28;20045;-47
2024/02/03 07:15:35;;;;;;;20.33;11.75;;;6.70;99.90;;;;;;5048592;28;20592;-50
2024/02/03 07:18:02;;;;;;;18.02;10.50;;;6.70;99.90;;;;;;5049386;28;20498;-49
2024/02/03 07:20:29;;;;;;;18.50;10.60;;;6.70;99.90;;;;;;5053315;28;20104;-52
2024/02/03 07:22:56;;;;;;;16.48;10.15;;;6.70;99.90;;;;;;5053666;28;20398;-48
2024/02/03 07:25:23;;;;;;;19.73;11.90;;;6.70;99.90;;;;;;5052279;28;20120;-52
2024/02/03 07:27:50;;;;;;;16.92;10.23;;;6.60;99.90;;;;;;5049233;28;20051;-48
2024/02/03 07:30:17;;;;;;;15.95;10.18;;;6.70;99.90;;;;;;5053066;28;20079;-49
2024/02/03 07:32:44;;;;;;;16.73;9.95;;;6.70;99.90;;;;;;5031851;28;20083;-49
2024/02/03 07:35:11;;;;;;;19.92;10.95;;;6.70;99.90;;;;;;5047482;28;20098;-49
2024/02/03 07:37:39;;;;;;;17.05;11.10;;;6.70;99.90;;;;;;5048774;28;20049;-52
2024/02/03 07:40:06;;;;;;;16.90;10.80;;;6.70;99.90;;;;;;5048919;28;20223;-53
2024/02/03 07:42:33;;;;;;;16.48;10.48;;;6.70;99.90;;;;;;5051858;28;20623;-47
2024/02/03 07:45:00;;;;;;;15.85;10.52;;;6.70;99.90;;;;;;5050606;28;20132;-48
2024/02/03 07:47:28;;;;;;;18.95;11.05;;;6.70;99.90;;;;;;5046789;28;20112;-47
2024/02/03 07:49:55;;;;;;;16.10;9.70;;;6.70;99.90;;;;;;5048685;28;20095;-49
2024/02/03 07:52:22;;;;;;;16.77;9.90;;;6.80;99.90;;;;;;5045531;28;20060;-47
2024/02/03 07:54:49;;;;;;;16.33;9.27;;;6.80;99.90;;;;;;5047691;28;20049;-51
2024/02/03 07:57:16;;;;;;;16.85;10.48;;;6.70;99.90;;;;;;5030339;28;20037;-50
2024/02/03 07:59:43;;;;;;;15.98;9.13;;;6.70;99.90;;;;;;5048371;28;20100;-46
2024/02/03 08:02:09;;;;;;;15.07;9.10;;;6.80;99.90;;;;;;5042563;28;20102;-46
2024/02/03 08:04:36;;;;;;;15.30;9.65;;;6.80;99.90;;;;;;5047374;28;20041;-48
2024/02/03 08:07:04;;;;;;;13.55;8.77;;;6.80;99.90;;;;;;5048946;28;20048;-47
2024/02/03 08:09:31;;;;;;;14.52;9.07;;;6.80;99.90;;;;;;5048630;28;20041;-51
2024/02/03 08:11:59;;;;;;;12.68;8.00;;;6.80;99.90;;;;;;5048447;28;20053;-49
2024/02/03 08:14:26;;;;;;;12.60;7.70;;;6.80;99.90;;;;;;5048083;28;20383;-52
2024/02/03 08:16:53;;;;;;;14.40;8.63;;;6.80;99.90;;;;;;5048518;28;20381;-52
2024/02/03 08:19:21;;;;;;;13.05;7.28;;;6.80;99.90;;;;;;5047824;28;20053;-48
2024/02/03 08:21:48;;;;;;;12.63;7.53;;;6.90;99.90;;;;;;5048666;28;20124;-47
2024/02/03 08:24:16;;;;;;;14.27;7.85;;;6.90;99.90;;;;;;5048078;28;20128;-48
2024/02/03 08:26:43;;;;;;;10.65;6.35;;;6.90;99.90;;;;;;5029535;28;20103;-51
2024/02/03 08:29:11;;;;;;;14.48;6.47;;;6.90;99.90;;;;;;5050842;28;20486;-48
2024/02/03 08:31:38;;;;;;;10.75;5.97;;;6.90;99.90;;;;;;5045252;28;20552;-48
2024/02/03 08:34:05;;;;;;;12.27;6.15;;;6.90;99.90;;;;;;5032046;28;20100;-49
2024/02/03 08:36:32;;;;;;;11.77;6.07;;;6.90;99.90;;;;;;5049056;28;20501;-46
2024/02/03 08:38:59;;;;;;;11.18;5.88;;;6.90;99.90;;;;;;5050008;28;20577;-50
2024/02/03 08:41:26;;;;;;;9.25;5.47;;;7.00;99.90;;;;;;5047033;28;20576;-48
2024/02/03 08:43:53;;;;;;;11.20;5.20;;;7.00;99.90;;;;;;5045768;28;20041;-46
2024/02/03 08:46:20;;;;;;;9.75;5.57;;;7.00;99.90;;;;;;5047798;28;20064;-50
2024/02/03 08:48:47;;;;;;;9.52;5.32;;;7.00;99.90;;;;;;5030389;28;20136;-50
2024/02/03 08:51:17;;;;;;;9.13;5.18;;;7.00;99.90;;;;;;5049048;28;20413;-51
2024/02/03 08:53:44;;;;;;;7.47;4.35;;;7.00;99.90;;;;;;5047157;28;20051;-50
2024/02/03 08:56:11;;;;;;;10.82;4.80;;;7.00;99.90;;;;;;5047112;28;20063;-52
2024/02/03 08:58:38;;;;;;;10.10;5.00;;;7.00;99.90;;;;;;5045779;28;20049;-49
2024/02/03 09:01:05;;;;;;;11.40;5.50;;;7.00;99.90;;;;;;5049688;28;20029;-50
2024/02/03 09:03:32;;;;;;;9.05;4.63;;;7.10;99.90;;;;;;5048280;28;20037;-46
2024/02/03 09:05:59;;;;;;;13.70;5.28;;;7.10;99.90;;;;;;5042426;28;20422;-47
2024/02/03 09:08:26;;;;;;;10.75;5.25;;;7.10;99.90;;;;;;5047327;28;20621;-50
2024/02/03 09:10:53;;;;;;;8.93;5.53;;;7.10;99.90;;;;;;5048979;28;20103;-45
2024/02/03 09:13:20;;;;;;;8.38;5.03;;;7.10;99.90;;;;;;5048480;28;20051;-51
2024/02/03 09:15:47;;;;;;;10.40;5.35;;;7.10;99.90;;;;;;5049746;28;20076;-48
2024/02/03 09:18:14;;;;;;;9.55;4.65;;;7.00;99.90;;;;;;5051308;28;20041;-46
2024/02/03 09:20:41;;;;;;;9.93;5.47;;;7.00;99.90;;;;;;5050174;28;20053;-45
2024/02/03 09:23:08;;;;;;;10.25;5.13;;;7.00;99.90;;;;;;5048370;28;20069;-47
2024/02/03 09:25:39;;;;;;;10.73;6.15;;;7.00;99.90;;;;;;5049645;28;20167;-48
2024/02/03 09:28:07;;;;;;;10.25;6.10;;;7.00;99.90;;;;;;5045753;28;20048;-46
2024/02/03 09:30:34;;;;;;;12.30;7.00;;;7.00;99.90;;;;;;5045545;28;20103;-45
2024/02/03 09:33:02;;;;;;;12.48;7.20;;;7.00;99.90;;;;;;5049078;28;20056;-48
2024/02/03 09:35:29;;;;;;;11.63;7.00;;;6.90;99.90;;;;;;5047167;28;20602;-49
2024/02/03 09:37:56;;;;;;;16.27;7.10;;;6.90;99.90;;;;;;5056335;28;20055;-48
2024/02/03 09:40:26;;;;;;;11.82;6.75;;;6.90;99.90;;;;;;5052672;28;20084;-50
2024/02/03 09:42:54;;;;;;;10.50;6.53;;;6.90;99.90;;;;;;5048041;28;20076;-47
2024/02/03 09:45:21;;;;;;;9.32;5.95;;;6.90;99.90;;;;;;5048243;28;20446;-46
2024/02/03 09:47:49;;;;;;;13.80;6.07;;;6.90;99.90;;;;;;5047441;28;20104;-49
2024/02/03 09:50:16;;;;;;;11.98;7.30;;;6.90;99.90;;;;;;5048434;28;20049;-46
2024/02/03 09:52:45;;;;;;;12.52;6.45;;;6.90;99.90;;;;;;5047334;28;20041;-48
2024/02/03 09:55:12;;;;;;;8.40;5.60;;;6.90;99.90;;;;;;5029936;28;20049;-51
2024/02/03 09:57:39;;;;;;;8.75;5.50;;;6.90;99.90;;;;;;5041332;28;20056;-46
2024/02/03 10:00:10;;;;;;;9.85;4.25;;;7.00;99.90;;;;;;5051933;28;20122;-48
2024/02/03 10:02:37;;;;;;;8.57;3.95;;;7.10;99.90;;;;;;5062777;28;20041;-56
2024/02/03 10:05:04;;;;;;;6.60;3.97;;;7.30;99.90;;;;;;5051334;28;20084;-49
2024/02/03 10:07:32;;;;;;;7.55;4.15;;;7.40;99.90;;;;;;5046981;28;20126;-46
2024/02/03 10:10:07;;;;;;;5.00;3.33;;;7.60;99.90;;;;;;5051283;28;20049;-46
2024/02/03 10:12:37;;;;;;;6.13;3.78;;;7.70;99.90;;;;;;5050680;28;20565;-49
2024/02/03 10:15:05;;;;;;;6.03;3.45;;;7.80;99.90;;;;;;5050277;28;20493;-50
2024/02/03 10:17:34;;;;;;;5.65;3.50;;;7.80;99.90;;;;;;5048166;28;20049;-47
2024/02/03 10:20:01;;;;;;;7.63;3.30;;;7.80;99.90;;;;;;5049624;28;20067;-51
2024/02/03 10:22:29;;;;;;;7.07;3.83;;;7.90;99.90;;;;;;5050377;28;20041;-50
2024/02/03 10:25:09;;;;;;;6.10;3.72;;;7.90;99.90;;;;;;5051082;28;20752;-50
2024/02/03 10:27:41;;;;;;;7.63;3.90;;;7.90;99.90;;;;;;5047120;28;20037;-48
2024/02/03 10:30:08;;;;;;;5.95;3.85;;;7.90;99.90;;;;;;5052165;28;20041;-49
2024/02/03 10:32:35;;;;;;;6.03;4.03;;;8.00;99.90;;;;;;5052112;28;20091;-46
2024/02/03 10:35:03;;;;;;;5.78;3.70;;;8.00;99.90;;;;;;5051336;28;20123;-47
2024/02/03 10:37:30;;;;;;;6.90;3.60;;;8.20;99.90;;;;;;5049533;28;20132;-45
2024/02/03 10:39:57;;;;;;;7.13;3.05;;;8.00;99.90;;;;;;5049851;28;20051;-47
2024/02/03 10:42:27;;;;;;;6.72;3.20;;;7.90;99.90;;;;;;5049188;28;20041;-49
2024/02/03 10:44:58;;;;;;;5.88;3.00;;;8.00;99.90;;;;;;5047450;28;20096;-49
2024/02/03 10:47:26;;;;;;;5.10;3.10;;;8.10;99.90;;;;;;5049629;28;20041;-46
2024/02/03 10:49:55;;;;;;;4.82;2.67;;;8.20;99.90;;;;;;5053746;28;20049;-47
2024/02/03 10:52:25;;;;;;;5.22;2.33;;;8.20;99.90;;;;;;5050405;28;20037;-50
2024/02/03 10:54:56;;;;;;;5.30;2.70;;;8.10;99.90;;;;;;5044518;28;20049;-50
2024/02/03 10:57:25;;;;;;;4.00;2.50;;;8.20;99.90;;;;;;5048655;28;20166;-49
2024/02/03 11:00:04;;;;;;;4.80;2.30;;;8.30;99.90;;;;;;5048798;28;20603;-47
2024/02/03 11:02:31;;;;;;;4.47;2.17;;;8.10;99.90;;;;;;5050627;28;20037;-53
2024/02/03 11:04:58;;;;;;;3.55;2.20;;;8.10;99.90;;;;;;5051671;28;20113;-46
2024/02/03 11:07:30;;;;;;;;;;;8.00;99.90;;;;;;5051499;28;20036;-46
2024/02/03 11:10:03;;;;;;;3.80;1.90;;;7.90;99.90;;;;;;5032125;28;19931;-51
2024/02/03 11:12:34;;;;;;;3.50;1.88;;;7.90;99.90;;;;;;5050237;28;20045;-47
2024/02/03 11:15:08;;;;;;;4.53;2.10;;;7.90;99.90;;;;;;5049741;28;20052;-50
2024/02/03 11:17:35;;;;;;;3.72;2.00;;;8.00;99.90;;;;;;5037688;28;20079;-49
2024/02/03 11:20:06;;;;;;;5.05;2.38;;;8.00;99.90;;;;;;5050082;28;20068;-51
2024/02/03 11:22:38;;;;;;;2.95;1.70;;;8.00;99.90;;;;;;5053250;28;20053;-47
2024/02/03 11:25:07;;;;;;;2.70;1.60;;;7.90;99.90;;;;;;5052212;28;20045;-45
2024/02/03 11:27:34;;;;;;;2.70;1.52;;;8.00;99.90;;;;;;5044259;28;20060;-48
2024/02/03 11:30:05;;;;;;;2.72;1.70;;;8.00;99.90;;;;;;5050337;28;20750;-47
2024/02/03 11:32:32;;;;;;;3.20;1.73;;;8.10;99.90;;;;;;5047190;28;20045;-50
2024/02/03 11:35:04;;;;;;;4.30;1.70;;;8.00;99.90;;;;;;5049732;28;20045;-48
2024/02/03 11:37:31;;;;;;;2.20;1.45;;;8.00;99.90;;;;;;5049785;28;20099;-49
2024/02/03 11:40:12;;;;;;;3.72;1.63;;;8.00;99.90;;;;;;5052051;28;20041;-50
2024/02/03 11:42:42;;;;;;;3.17;1.60;;;8.00;99.90;;;;;;5046782;28;20056;-52
2024/02/03 11:45:14;;;;;;;4.13;1.77;;;8.00;99.90;;;;;;5044314;28;20049;-48
2024/02/03 11:47:42;;;;;;;3.42;1.70;;;8.00;99.90;;;;;;5049239;28;20045;-49
2024/02/03 11:50:10;;;;;;;2.90;1.70;;;7.90;99.90;;;;;;5049172;28;20037;-48
2024/02/03 11:52:44;;;;;;;4.60;1.73;;;7.90;99.90;;;;;;5050273;28;20079;-48
2024/02/03 11:55:11;;;;;;;2.35;1.50;;;7.90;99.90;;;;;;5049536;28;20049;-49
2024/02/03 11:57:38;;;;;;;2.78;1.50;;;7.90;99.90;;;;;;5047559;28;20410;-48
2024/02/03 12:00:06;;;;;;;3.13;1.70;;;8.00;99.90;;;;;;5048011;28;20049;-50
2024/02/03 12:02:34;;;;;;;1.95;1.33;;;7.80;99.90;;;;;;5046931;28;20047;-54
2024/02/03 12:05:02;;;;;;;3.13;1.70;;;7.80;99.90;;;;;;5047254;28;20038;-49
2024/02/03 12:07:29;;;;;;;3.10;1.40;;;7.80;99.90;;;;;;5050316;28;20036;-45
2024/02/03 12:09:56;;;;;;;2.83;1.50;;;7.80;99.90;;;;;;5050336;28;20553;-48
2024/02/03 12:12:24;;;;;;;3.90;1.50;;;7.80;99.90;;;;;;5048022;28;20041;-50
2024/02/03 12:14:53;;;;;;;2.47;1.40;;;7.90;99.90;;;;;;5054129;28;20053;-53
2024/02/03 12:17:20;;;;;;;6.60;1.40;;;7.80;99.90;;;;;;5049528;28;20045;-45
2024/02/03 12:19:47;;;;;;;3.17;1.60;;;7.80;99.90;;;;;;5050176;28;20118;-47
2024/02/03 12:22:14;;;;;;;6.10;1.92;;;7.70;99.90;;;;;;5049198;28;20079;-47
2024/02/03 12:24:41;;;;;;;4.88;1.70;;;7.70;99.90;;;;;;5053193;28;20052;-47
2024/02/03 12:27:09;;;;;;;2.75;1.40;;;7.80;99.90;;;;;;5048054;28;20037;-48
2024/02/03 12:29:37;;;;;;;4.07;1.40;;;7.70;99.90;;;;;;5045857;28;20076;-49
2024/02/03 12:32:04;;;;;;;2.72;1.50;;;7.70;99.90;;;;;;5044455;28;20127;-46
2024/02/03 12:34:31;;;;;;;5.07;1.35;;;7.70;99.90;;;;;;5053014;28;20049;-47
2024/02/03 12:36:59;;;;;;;3.45;1.40;;;7.70;99.90;;;;;;5053618;28;20067;-55
2024/02/03 12:39:26;;;;;;;3.08;1.58;;;7.80;99.90;;;;;;5045794;28;20353;-51
2024/02/03 12:41:53;;;;;;;3.63;1.50;;;7.80;99.90;;;;;;5050491;28;20116;-46
2024/02/03 12:44:20;;;;;;;3.35;1.58;;;7.90;99.90;;;;;;5049382;28;20056;-48
2024/02/03 12:46:47;;;;;;;3.17;1.40;;;7.90;99.90;;;;;;5049237;28;20095;-45
2024/02/03 12:49:14;;;;;;;2.00;1.30;;;7.90;99.90;;;;;;5048766;28;20033;-48